sensor_id;sensor_type;location;lat;lon;timestamp;P1;durP1;ratioP1;P2;durP2;ratioP2
6725;SDS011;3400;48.506;11.692;2023-02-22T00:00:33;8.47;;;5.63;;
6725;SDS011;3400;48.506;11.692;2023-02-22T00:03:10;5.97;;;4.93;;
6725;SDS011;3400;48.506;11.692;2023-02-22T00:05:40;6.13;;;5.37;;
6725;SDS011;3400;48.506;11.692;2023-02-22T00:08:09;7.27;;;5.20;;
6725;SDS011;3400;48.506;11.692;2023-02-22T00:10:37;7.40;;;4.70;;
6725;SDS011;3400;48.506;11.692;2023-02-22T00:13:06;11.53;;;5.80;;
6725;SDS011;3400;48.506;11.692;2023-02-22T00:15:34;8.63;;;5.07;;
6725;SDS011;3400;48.506;11.692;2023-02-22T00:18:03;5.53;;;4.97;;
6725;SDS011;3400;48.506;11.692;2023-02-22T00:20:33;6.20;;;4.80;;
6725;SDS011;3400;48.506;11.692;2023-02-22T00:23:04;11.77;;;5.37;;
6725;SDS011;3400;48.506;11.692;2023-02-22T00:25:33;6.53;;;5.87;;
6725;SDS011;3400;48.506;11.692;2023-02-22T00:28:01;6.70;;;6.00;;
6725;SDS011;3400;48.506;11.692;2023-02-22T00:30:29;6.67;;;5.30;;
6725;SDS011;3400;48.506;11.692;2023-02-22T00:32:58;5.20;;;4.70;;
6725;SDS011;3400;48.506;11.692;2023-02-22T00:35:27;5.20;;;4.70;;
6725;SDS011;3400;48.506;11.692;2023-02-22T00:37:58;8.37;;;5.60;;
6725;SDS011;3400;48.506;11.692;2023-02-22T00:40:27;6.43;;;5.43;;
6725;SDS011;3400;48.506;11.692;2023-02-22T00:42:56;7.17;;;5.27;;
6725;SDS011;3400;48.506;11.692;2023-02-22T00:45:24;9.97;;;5.60;;
6725;SDS011;3400;48.506;11.692;2023-02-22T00:47:52;6.03;;;5.43;;
6725;SDS011;3400;48.506;11.692;2023-02-22T00:50:21;7.50;;;6.20;;
6725;SDS011;3400;48.506;11.692;2023-02-22T00:52:49;8.77;;;5.70;;
6725;SDS011;3400;48.506;11.692;2023-02-22T00:55:20;8.10;;;5.87;;
6725;SDS011;3400;48.506;11.692;2023-02-22T00:57:48;9.83;;;5.80;;
6725;SDS011;3400;48.506;11.692;2023-02-22T01:00:17;7.67;;;6.50;;
6725;SDS011;3400;48.506;11.692;2023-02-22T01:02:45;7.20;;;6.23;;
6725;SDS011;3400;48.506;11.692;2023-02-22T01:05:16;7.03;;;6.07;;
6725;SDS011;3400;48.506;11.692;2023-02-22T01:07:44;6.40;;;5.53;;
6725;SDS011;3400;48.506;11.692;2023-02-22T01:10:14;7.90;;;6.13;;
6725;SDS011;3400;48.506;11.692;2023-02-22T01:12:45;8.10;;;6.00;;
6725;SDS011;3400;48.506;11.692;2023-02-22T01:15:13;7.97;;;6.33;;
6725;SDS011;3400;48.506;11.692;2023-02-22T01:17:42;9.27;;;7.13;;
6725;SDS011;3400;48.506;11.692;2023-02-22T01:20:10;9.73;;;6.80;;
6725;SDS011;3400;48.506;11.692;2023-02-22T01:22:38;8.63;;;6.33;;
6725;SDS011;3400;48.506;11.692;2023-02-22T01:25:07;7.57;;;6.27;;
6725;SDS011;3400;48.506;11.692;2023-02-22T01:27:35;7.30;;;5.40;;
6725;SDS011;3400;48.506;11.692;2023-02-22T01:30:06;7.43;;;6.47;;
6725;SDS011;3400;48.506;11.692;2023-02-22T01:32:34;8.27;;;7.30;;
6725;SDS011;3400;48.506;11.692;2023-02-22T01:35:02;7.60;;;6.43;;
6725;SDS011;3400;48.506;11.692;2023-02-22T01:37:30;9.23;;;6.80;;
6725;SDS011;3400;48.506;11.692;2023-02-22T01:39:59;12.10;;;6.57;;
6725;SDS011;3400;48.506;11.692;2023-02-22T01:42:27;7.23;;;6.23;;
6725;SDS011;3400;48.506;11.692;2023-02-22T01:47:42;10.27;;;6.23;;
6725;SDS011;3400;48.506;11.692;2023-02-22T01:50:10;6.80;;;6.10;;
6725;SDS011;3400;48.506;11.692;2023-02-22T01:52:38;9.00;;;6.10;;
6725;SDS011;3400;48.506;11.692;2023-02-22T01:55:08;8.57;;;5.97;;
6725;SDS011;3400;48.506;11.692;2023-02-22T01:57:38;7.47;;;6.53;;
6725;SDS011;3400;48.506;11.692;2023-02-22T02:00:07;7.30;;;6.60;;
6725;SDS011;3400;48.506;11.692;2023-02-22T02:02:40;7.40;;;6.10;;
6725;SDS011;3400;48.506;11.692;2023-02-22T02:05:10;9.70;;;5.97;;
6725;SDS011;3400;48.506;11.692;2023-02-22T02:07:39;7.00;;;5.50;;
6725;SDS011;3400;48.506;11.692;2023-02-22T02:10:10;7.27;;;6.07;;
6725;SDS011;3400;48.506;11.692;2023-02-22T02:12:39;7.47;;;5.73;;
6725;SDS011;3400;48.506;11.692;2023-02-22T02:15:18;7.87;;;6.40;;
6725;SDS011;3400;48.506;11.692;2023-02-22T02:17:46;7.60;;;6.33;;
6725;SDS011;3400;48.506;11.692;2023-02-22T02:20:18;7.63;;;6.83;;
6725;SDS011;3400;48.506;11.692;2023-02-22T02:22:50;9.30;;;6.03;;
6725;SDS011;3400;48.506;11.692;2023-02-22T02:28:26;9.07;;;7.03;;
6725;SDS011;3400;48.506;11.692;2023-02-22T02:34:00;8.23;;;6.67;;
6725;SDS011;3400;48.506;11.692;2023-02-22T02:36:30;8.37;;;7.20;;
6725;SDS011;3400;48.506;11.692;2023-02-22T02:39:02;9.17;;;7.20;;
6725;SDS011;3400;48.506;11.692;2023-02-22T02:41:34;8.40;;;7.50;;
6725;SDS011;3400;48.506;11.692;2023-02-22T02:44:03;10.40;;;7.87;;
6725;SDS011;3400;48.506;11.692;2023-02-22T02:46:32;9.40;;;7.63;;
6725;SDS011;3400;48.506;11.692;2023-02-22T02:49:04;9.13;;;7.80;;
6725;SDS011;3400;48.506;11.692;2023-02-22T02:51:35;9.17;;;8.20;;
6725;SDS011;3400;48.506;11.692;2023-02-22T02:54:03;12.60;;;8.23;;
6725;SDS011;3400;48.506;11.692;2023-02-22T02:56:33;11.03;;;7.57;;
6725;SDS011;3400;48.506;11.692;2023-02-22T02:59:01;12.43;;;9.13;;
6725;SDS011;3400;48.506;11.692;2023-02-22T03:01:37;11.03;;;7.73;;
6725;SDS011;3400;48.506;11.692;2023-02-22T03:04:14;9.27;;;7.90;;
6725;SDS011;3400;48.506;11.692;2023-02-22T03:06:53;11.30;;;7.93;;
6725;SDS011;3400;48.506;11.692;2023-02-22T03:09:29;10.07;;;8.00;;
6725;SDS011;3400;48.506;11.692;2023-02-22T03:12:06;12.10;;;8.60;;
6725;SDS011;3400;48.506;11.692;2023-02-22T03:14:36;9.77;;;8.53;;
6725;SDS011;3400;48.506;11.692;2023-02-22T03:17:07;13.03;;;8.80;;
6725;SDS011;3400;48.506;11.692;2023-02-22T03:19:42;10.77;;;8.80;;
6725;SDS011;3400;48.506;11.692;2023-02-22T03:22:13;10.30;;;9.20;;
6725;SDS011;3400;48.506;11.692;2023-02-22T03:24:44;12.07;;;8.33;;
6725;SDS011;3400;48.506;11.692;2023-02-22T03:27:21;10.40;;;7.70;;
6725;SDS011;3400;48.506;11.692;2023-02-22T03:29:52;11.27;;;8.13;;
6725;SDS011;3400;48.506;11.692;2023-02-22T03:32:23;10.00;;;8.43;;
6725;SDS011;3400;48.506;11.692;2023-02-22T03:34:54;10.40;;;7.83;;
6725;SDS011;3400;48.506;11.692;2023-02-22T03:37:27;8.67;;;7.80;;
6725;SDS011;3400;48.506;11.692;2023-02-22T03:39:56;8.33;;;7.50;;
6725;SDS011;3400;48.506;11.692;2023-02-22T03:42:27;10.27;;;8.60;;
6725;SDS011;3400;48.506;11.692;2023-02-22T03:44:57;10.37;;;8.20;;
6725;SDS011;3400;48.506;11.692;2023-02-22T03:47:27;10.27;;;7.87;;
6725;SDS011;3400;48.506;11.692;2023-02-22T03:49:59;9.50;;;7.33;;
6725;SDS011;3400;48.506;11.692;2023-02-22T03:52:32;9.43;;;7.70;;
6725;SDS011;3400;48.506;11.692;2023-02-22T03:55:02;8.60;;;7.17;;
6725;SDS011;3400;48.506;11.692;2023-02-22T03:57:36;9.57;;;7.37;;
6725;SDS011;3400;48.506;11.692;2023-02-22T04:00:06;10.83;;;7.73;;
6725;SDS011;3400;48.506;11.692;2023-02-22T04:02:42;11.80;;;8.10;;
6725;SDS011;3400;48.506;11.692;2023-02-22T04:05:18;10.50;;;8.67;;
6725;SDS011;3400;48.506;11.692;2023-02-22T04:07:46;11.60;;;8.43;;
6725;SDS011;3400;48.506;11.692;2023-02-22T04:10:15;8.60;;;7.20;;
6725;SDS011;3400;48.506;11.692;2023-02-22T04:12:43;12.07;;;8.50;;
6725;SDS011;3400;48.506;11.692;2023-02-22T04:15:14;13.30;;;8.63;;
6725;SDS011;3400;48.506;11.692;2023-02-22T04:17:43;10.13;;;8.17;;
6725;SDS011;3400;48.506;11.692;2023-02-22T04:20:13;8.77;;;7.73;;
6725;SDS011;3400;48.506;11.692;2023-02-22T04:22:54;10.30;;;8.23;;
6725;SDS011;3400;48.506;11.692;2023-02-22T04:25:22;12.60;;;8.37;;
6725;SDS011;3400;48.506;11.692;2023-02-22T04:27:51;14.33;;;8.50;;
6725;SDS011;3400;48.506;11.692;2023-02-22T04:30:28;11.50;;;9.03;;
6725;SDS011;3400;48.506;11.692;2023-02-22T04:32:56;10.03;;;8.20;;
6725;SDS011;3400;48.506;11.692;2023-02-22T04:35:24;9.73;;;8.67;;
6725;SDS011;3400;48.506;11.692;2023-02-22T04:37:53;9.80;;;8.80;;
6725;SDS011;3400;48.506;11.692;2023-02-22T04:40:21;12.00;;;9.20;;
6725;SDS011;3400;48.506;11.692;2023-02-22T04:42:49;10.97;;;9.80;;
6725;SDS011;3400;48.506;11.692;2023-02-22T04:45:17;11.93;;;9.30;;
6725;SDS011;3400;48.506;11.692;2023-02-22T04:47:46;12.77;;;9.23;;
6725;SDS011;3400;48.506;11.692;2023-02-22T04:50:16;13.60;;;9.67;;
6725;SDS011;3400;48.506;11.692;2023-02-22T04:52:45;12.73;;;9.37;;
6725;SDS011;3400;48.506;11.692;2023-02-22T04:55:14;10.63;;;8.70;;
6725;SDS011;3400;48.506;11.692;2023-02-22T04:57:43;10.23;;;9.13;;
6725;SDS011;3400;48.506;11.692;2023-02-22T05:00:14;13.57;;;9.87;;
6725;SDS011;3400;48.506;11.692;2023-02-22T05:02:43;13.70;;;10.50;;
6725;SDS011;3400;48.506;11.692;2023-02-22T05:05:12;13.90;;;10.93;;
6725;SDS011;3400;48.506;11.692;2023-02-22T05:07:40;13.23;;;10.93;;
6725;SDS011;3400;48.506;11.692;2023-02-22T05:10:08;15.37;;;11.73;;
6725;SDS011;3400;48.506;11.692;2023-02-22T05:12:37;14.80;;;12.57;;
6725;SDS011;3400;48.506;11.692;2023-02-22T05:15:06;13.07;;;11.40;;
6725;SDS011;3400;48.506;11.692;2023-02-22T05:17:34;15.70;;;11.50;;
6725;SDS011;3400;48.506;11.692;2023-02-22T05:20:02;13.80;;;11.10;;
6725;SDS011;3400;48.506;11.692;2023-02-22T05:22:33;14.63;;;11.47;;
6725;SDS011;3400;48.506;11.692;2023-02-22T05:25:01;14.33;;;12.13;;
6725;SDS011;3400;48.506;11.692;2023-02-22T05:27:29;12.90;;;11.47;;
6725;SDS011;3400;48.506;11.692;2023-02-22T05:29:58;13.97;;;11.77;;
6725;SDS011;3400;48.506;11.692;2023-02-22T05:32:26;13.77;;;12.23;;
6725;SDS011;3400;48.506;11.692;2023-02-22T05:34:54;14.73;;;12.40;;
6725;SDS011;3400;48.506;11.692;2023-02-22T05:37:21;15.30;;;11.80;;
6725;SDS011;3400;48.506;11.692;2023-02-22T05:39:49;14.33;;;11.87;;
6725;SDS011;3400;48.506;11.692;2023-02-22T05:42:17;14.20;;;11.47;;
6725;SDS011;3400;48.506;11.692;2023-02-22T05:44:46;15.17;;;12.03;;
6725;SDS011;3400;48.506;11.692;2023-02-22T05:47:15;17.07;;;12.23;;
6725;SDS011;3400;48.506;11.692;2023-02-22T05:49:43;15.20;;;12.70;;
6725;SDS011;3400;48.506;11.692;2023-02-22T05:52:11;17.73;;;12.97;;
6725;SDS011;3400;48.506;11.692;2023-02-22T05:54:42;15.67;;;12.83;;
6725;SDS011;3400;48.506;11.692;2023-02-22T05:57:20;16.43;;;12.77;;
6725;SDS011;3400;48.506;11.692;2023-02-22T05:59:51;14.30;;;12.73;;
6725;SDS011;3400;48.506;11.692;2023-02-22T06:02:20;14.53;;;12.97;;
6725;SDS011;3400;48.506;11.692;2023-02-22T06:04:48;15.77;;;13.13;;
6725;SDS011;3400;48.506;11.692;2023-02-22T06:07:18;16.30;;;13.80;;
6725;SDS011;3400;48.506;11.692;2023-02-22T06:09:47;17.57;;;13.13;;
6725;SDS011;3400;48.506;11.692;2023-02-22T06:12:15;16.30;;;13.20;;
6725;SDS011;3400;48.506;11.692;2023-02-22T06:14:43;14.60;;;12.03;;
6725;SDS011;3400;48.506;11.692;2023-02-22T06:17:12;15.27;;;12.63;;
6725;SDS011;3400;48.506;11.692;2023-02-22T06:19:42;17.73;;;12.53;;
6725;SDS011;3400;48.506;11.692;2023-02-22T06:22:13;15.90;;;13.03;;
6725;SDS011;3400;48.506;11.692;2023-02-22T06:24:44;17.13;;;13.47;;
6725;SDS011;3400;48.506;11.692;2023-02-22T06:27:12;16.93;;;12.77;;
6725;SDS011;3400;48.506;11.692;2023-02-22T06:29:43;16.83;;;13.20;;
6725;SDS011;3400;48.506;11.692;2023-02-22T06:32:11;16.13;;;12.70;;
6725;SDS011;3400;48.506;11.692;2023-02-22T06:34:39;20.07;;;15.00;;
6725;SDS011;3400;48.506;11.692;2023-02-22T06:37:08;16.80;;;13.20;;
6725;SDS011;3400;48.506;11.692;2023-02-22T06:39:36;17.33;;;14.13;;
6725;SDS011;3400;48.506;11.692;2023-02-22T06:42:04;16.73;;;14.07;;
6725;SDS011;3400;48.506;11.692;2023-02-22T06:44:32;18.63;;;14.43;;
6725;SDS011;3400;48.506;11.692;2023-02-22T06:47:00;18.70;;;14.33;;
6725;SDS011;3400;48.506;11.692;2023-02-22T06:49:28;19.33;;;13.93;;
6725;SDS011;3400;48.506;11.692;2023-02-22T06:51:56;19.57;;;14.17;;
6725;SDS011;3400;48.506;11.692;2023-02-22T06:54:25;17.00;;;14.13;;
6725;SDS011;3400;48.506;11.692;2023-02-22T06:56:53;18.17;;;13.80;;
6725;SDS011;3400;48.506;11.692;2023-02-22T06:59:21;14.20;;;12.70;;
6725;SDS011;3400;48.506;11.692;2023-02-22T07:01:49;17.07;;;13.90;;
6725;SDS011;3400;48.506;11.692;2023-02-22T07:04:17;16.23;;;13.27;;
6725;SDS011;3400;48.506;11.692;2023-02-22T07:06:45;14.17;;;11.47;;
6725;SDS011;3400;48.506;11.692;2023-02-22T07:09:13;14.27;;;12.57;;
6725;SDS011;3400;48.506;11.692;2023-02-22T07:11:42;15.83;;;12.50;;
6725;SDS011;3400;48.506;11.692;2023-02-22T07:14:10;13.00;;;11.30;;
6725;SDS011;3400;48.506;11.692;2023-02-22T07:16:38;15.67;;;9.97;;
6725;SDS011;3400;48.506;11.692;2023-02-22T07:19:06;15.40;;;13.80;;
6725;SDS011;3400;48.506;11.692;2023-02-22T07:21:34;15.67;;;11.70;;
6725;SDS011;3400;48.506;11.692;2023-02-22T07:24:01;12.07;;;10.03;;
6725;SDS011;3400;48.506;11.692;2023-02-22T07:26:29;10.13;;;9.03;;
6725;SDS011;3400;48.506;11.692;2023-02-22T07:28:59;13.17;;;10.47;;
6725;SDS011;3400;48.506;11.692;2023-02-22T07:31:27;10.53;;;9.43;;
6725;SDS011;3400;48.506;11.692;2023-02-22T07:33:54;9.50;;;8.50;;
6725;SDS011;3400;48.506;11.692;2023-02-22T07:36:23;10.77;;;9.63;;
6725;SDS011;3400;48.506;11.692;2023-02-22T07:38:52;11.10;;;9.90;;
6725;SDS011;3400;48.506;11.692;2023-02-22T07:41:20;13.17;;;10.33;;
6725;SDS011;3400;48.506;11.692;2023-02-22T07:43:48;15.27;;;10.83;;
6725;SDS011;3400;48.506;11.692;2023-02-22T07:46:17;14.60;;;10.63;;
6725;SDS011;3400;48.506;11.692;2023-02-22T07:48:45;14.30;;;10.60;;
6725;SDS011;3400;48.506;11.692;2023-02-22T07:51:14;12.00;;;9.33;;
6725;SDS011;3400;48.506;11.692;2023-02-22T07:53:42;13.30;;;9.40;;
6725;SDS011;3400;48.506;11.692;2023-02-22T07:56:10;9.67;;;8.70;;
6725;SDS011;3400;48.506;11.692;2023-02-22T07:58:38;10.77;;;9.67;;
6725;SDS011;3400;48.506;11.692;2023-02-22T08:01:06;11.33;;;8.63;;
6725;SDS011;3400;48.506;11.692;2023-02-22T08:03:36;9.70;;;8.30;;
6725;SDS011;3400;48.506;11.692;2023-02-22T08:06:04;9.00;;;8.20;;
6725;SDS011;3400;48.506;11.692;2023-02-22T08:08:32;11.23;;;9.03;;
6725;SDS011;3400;48.506;11.692;2023-02-22T08:11:00;9.53;;;8.53;;
6725;SDS011;3400;48.506;11.692;2023-02-22T08:13:28;11.97;;;10.13;;
6725;SDS011;3400;48.506;11.692;2023-02-22T08:15:56;10.17;;;8.97;;
6725;SDS011;3400;48.506;11.692;2023-02-22T08:18:24;11.20;;;8.60;;
6725;SDS011;3400;48.506;11.692;2023-02-22T08:20:53;10.33;;;9.23;;
6725;SDS011;3400;48.506;11.692;2023-02-22T08:23:21;9.83;;;8.70;;
6725;SDS011;3400;48.506;11.692;2023-02-22T08:25:50;8.80;;;7.90;;
6725;SDS011;3400;48.506;11.692;2023-02-22T08:28:19;9.07;;;8.17;;
6725;SDS011;3400;48.506;11.692;2023-02-22T08:30:48;8.50;;;7.30;;
6725;SDS011;3400;48.506;11.692;2023-02-22T08:33:16;8.20;;;7.40;;
6725;SDS011;3400;48.506;11.692;2023-02-22T08:35:45;8.50;;;7.60;;
6725;SDS011;3400;48.506;11.692;2023-02-22T08:38:16;10.20;;;6.83;;
6725;SDS011;3400;48.506;11.692;2023-02-22T08:40:46;5.87;;;5.23;;
6725;SDS011;3400;48.506;11.692;2023-02-22T08:43:14;7.27;;;5.37;;
6725;SDS011;3400;48.506;11.692;2023-02-22T08:45:42;6.67;;;5.70;;
6725;SDS011;3400;48.506;11.692;2023-02-22T08:48:11;7.87;;;5.87;;
6725;SDS011;3400;48.506;11.692;2023-02-22T08:50:39;8.60;;;6.17;;
6725;SDS011;3400;48.506;11.692;2023-02-22T08:53:09;7.87;;;6.10;;
6725;SDS011;3400;48.506;11.692;2023-02-22T08:55:39;7.60;;;5.87;;
6725;SDS011;3400;48.506;11.692;2023-02-22T08:58:07;7.23;;;5.80;;
6725;SDS011;3400;48.506;11.692;2023-02-22T09:00:36;7.13;;;5.47;;
6725;SDS011;3400;48.506;11.692;2023-02-22T09:03:05;6.60;;;5.90;;
6725;SDS011;3400;48.506;11.692;2023-02-22T09:05:33;5.13;;;4.63;;
6725;SDS011;3400;48.506;11.692;2023-02-22T09:08:01;6.30;;;4.80;;
6725;SDS011;3400;48.506;11.692;2023-02-22T09:10:30;5.73;;;5.23;;
6725;SDS011;3400;48.506;11.692;2023-02-22T09:13:00;4.77;;;4.37;;
6725;SDS011;3400;48.506;11.692;2023-02-22T09:15:28;5.07;;;4.67;;
6725;SDS011;3400;48.506;11.692;2023-02-22T09:17:57;4.73;;;3.63;;
6725;SDS011;3400;48.506;11.692;2023-02-22T09:20:25;4.43;;;4.00;;
6725;SDS011;3400;48.506;11.692;2023-02-22T09:22:53;5.17;;;3.70;;
6725;SDS011;3400;48.506;11.692;2023-02-22T09:25:21;4.17;;;3.87;;
6725;SDS011;3400;48.506;11.692;2023-02-22T09:27:49;3.30;;;3.03;;
6725;SDS011;3400;48.506;11.692;2023-02-22T09:30:21;4.97;;;3.53;;
6725;SDS011;3400;48.506;11.692;2023-02-22T09:32:50;3.30;;;3.00;;
6725;SDS011;3400;48.506;11.692;2023-02-22T09:35:18;5.17;;;3.70;;
6725;SDS011;3400;48.506;11.692;2023-02-22T09:37:52;3.90;;;3.00;;
6725;SDS011;3400;48.506;11.692;2023-02-22T09:40:20;4.57;;;3.30;;
6725;SDS011;3400;48.506;11.692;2023-02-22T09:42:56;4.40;;;3.00;;
6725;SDS011;3400;48.506;11.692;2023-02-22T09:45:29;3.10;;;2.80;;
6725;SDS011;3400;48.506;11.692;2023-02-22T09:48:02;3.10;;;2.83;;
6725;SDS011;3400;48.506;11.692;2023-02-22T09:50:32;3.60;;;2.73;;
6725;SDS011;3400;48.506;11.692;2023-02-22T09:53:02;3.38;;;2.65;;
6725;SDS011;3400;48.506;11.692;2023-02-22T09:55:32;2.88;;;2.55;;
6725;SDS011;3400;48.506;11.692;2023-02-22T09:58:02;3.63;;;3.33;;
6725;SDS011;3400;48.506;11.692;2023-02-22T10:00:32;3.72;;;3.30;;
6725;SDS011;3400;48.506;11.692;2023-02-22T10:03:04;5.90;;;3.50;;
6725;SDS011;3400;48.506;11.692;2023-02-22T10:05:36;5.13;;;3.28;;
6725;SDS011;3400;48.506;11.692;2023-02-22T10:08:05;4.82;;;3.15;;
6725;SDS011;3400;48.506;11.692;2023-02-22T10:10:38;4.15;;;3.20;;
6725;SDS011;3400;48.506;11.692;2023-02-22T10:13:08;2.80;;;2.22;;
6725;SDS011;3400;48.506;11.692;2023-02-22T10:15:43;2.40;;;2.22;;
6725;SDS011;3400;48.506;11.692;2023-02-22T10:20:56;3.00;;;2.67;;
6725;SDS011;3400;48.506;11.692;2023-02-22T10:23:25;2.30;;;2.10;;
6725;SDS011;3400;48.506;11.692;2023-02-22T10:25:58;2.17;;;2.05;;
6725;SDS011;3400;48.506;11.692;2023-02-22T10:28:30;2.90;;;2.60;;
6725;SDS011;3400;48.506;11.692;2023-02-22T10:31:02;3.33;;;2.50;;
6725;SDS011;3400;48.506;11.692;2023-02-22T10:33:33;2.45;;;2.25;;
6725;SDS011;3400;48.506;11.692;2023-02-22T10:36:03;3.20;;;2.92;;
6725;SDS011;3400;48.506;11.692;2023-02-22T10:38:31;3.72;;;2.40;;
6725;SDS011;3400;48.506;11.692;2023-02-22T10:41:00;3.42;;;2.97;;
6725;SDS011;3400;48.506;11.692;2023-02-22T10:43:29;2.95;;;2.75;;
6725;SDS011;3400;48.506;11.692;2023-02-22T10:45:59;5.85;;;3.00;;
6725;SDS011;3400;48.506;11.692;2023-02-22T10:48:28;3.72;;;2.75;;
6725;SDS011;3400;48.506;11.692;2023-02-22T10:50:58;3.25;;;2.95;;
6725;SDS011;3400;48.506;11.692;2023-02-22T10:53:27;3.60;;;3.30;;
6725;SDS011;3400;48.506;11.692;2023-02-22T10:58:50;3.05;;;2.83;;
6725;SDS011;3400;48.506;11.692;2023-02-22T11:01:19;5.53;;;3.88;;
6725;SDS011;3400;48.506;11.692;2023-02-22T11:03:56;7.32;;;3.35;;
6725;SDS011;3400;48.506;11.692;2023-02-22T11:06:24;3.95;;;3.58;;
6725;SDS011;3400;48.506;11.692;2023-02-22T11:08:53;3.90;;;3.10;;
6725;SDS011;3400;48.506;11.692;2023-02-22T11:11:30;3.63;;;3.33;;
6725;SDS011;3400;48.506;11.692;2023-02-22T11:13:58;3.55;;;3.25;;
6725;SDS011;3400;48.506;11.692;2023-02-22T11:16:27;4.25;;;3.08;;
6725;SDS011;3400;48.506;11.692;2023-02-22T11:19:02;3.92;;;3.63;;
6725;SDS011;3400;48.506;11.692;2023-02-22T11:21:35;3.70;;;3.40;;
6725;SDS011;3400;48.506;11.692;2023-02-22T11:24:04;4.68;;;3.63;;
6725;SDS011;3400;48.506;11.692;2023-02-22T11:26:39;5.25;;;4.00;;
6725;SDS011;3400;48.506;11.692;2023-02-22T11:29:09;3.83;;;3.53;;
6725;SDS011;3400;48.506;11.692;2023-02-22T11:31:40;5.32;;;4.20;;
6725;SDS011;3400;48.506;11.692;2023-02-22T11:36:53;4.43;;;4.03;;
6725;SDS011;3400;48.506;11.692;2023-02-22T11:39:22;6.05;;;4.10;;
6725;SDS011;3400;48.506;11.692;2023-02-22T11:41:50;5.68;;;4.55;;
6725;SDS011;3400;48.506;11.692;2023-02-22T11:44:22;6.90;;;4.13;;
6725;SDS011;3400;48.506;11.692;2023-02-22T11:46:50;4.70;;;4.30;;
6725;SDS011;3400;48.506;11.692;2023-02-22T11:49:20;4.18;;;3.88;;
6725;SDS011;3400;48.506;11.692;2023-02-22T11:51:55;4.85;;;4.38;;
6725;SDS011;3400;48.506;11.692;2023-02-22T11:54:31;3.92;;;3.63;;
6725;SDS011;3400;48.506;11.692;2023-02-22T11:57:07;5.22;;;3.97;;
6725;SDS011;3400;48.506;11.692;2023-02-22T11:59:43;3.70;;;3.40;;
6725;SDS011;3400;48.506;11.692;2023-02-22T12:05:10;3.75;;;3.45;;
6725;SDS011;3400;48.506;11.692;2023-02-22T12:07:47;3.78;;;3.47;;
6725;SDS011;3400;48.506;11.692;2023-02-22T12:10:19;3.67;;;3.38;;
6725;SDS011;3400;48.506;11.692;2023-02-22T12:12:54;3.28;;;3.08;;
6725;SDS011;3400;48.506;11.692;2023-02-22T12:15:27;3.53;;;3.33;;
6725;SDS011;3400;48.506;11.692;2023-02-22T12:17:58;3.75;;;3.13;;
6725;SDS011;3400;48.506;11.692;2023-02-22T12:20:28;3.60;;;3.30;;
6725;SDS011;3400;48.506;11.692;2023-02-22T12:23:02;5.10;;;3.58;;
6725;SDS011;3400;48.506;11.692;2023-02-22T12:25:32;4.00;;;3.50;;
6725;SDS011;3400;48.506;11.692;2023-02-22T12:28:13;6.32;;;3.97;;
6725;SDS011;3400;48.506;11.692;2023-02-22T12:30:43;3.90;;;3.60;;
6725;SDS011;3400;48.506;11.692;2023-02-22T12:33:14;4.20;;;3.38;;
6725;SDS011;3400;48.506;11.692;2023-02-22T12:35:47;4.55;;;3.35;;
6725;SDS011;3400;48.506;11.692;2023-02-22T12:38:19;3.92;;;3.63;;
6725;SDS011;3400;48.506;11.692;2023-02-22T12:40:49;3.80;;;3.50;;
6725;SDS011;3400;48.506;11.692;2023-02-22T12:43:22;3.80;;;2.85;;
6725;SDS011;3400;48.506;11.692;2023-02-22T12:45:56;5.05;;;3.10;;
6725;SDS011;3400;48.506;11.692;2023-02-22T12:48:34;3.45;;;2.88;;
6725;SDS011;3400;48.506;11.692;2023-02-22T12:51:06;3.83;;;3.53;;
6725;SDS011;3400;48.506;11.692;2023-02-22T12:53:39;3.40;;;3.10;;
6725;SDS011;3400;48.506;11.692;2023-02-22T12:56:37;2.95;;;2.75;;
6725;SDS011;3400;48.506;11.692;2023-02-22T12:59:16;3.03;;;2.75;;
6725;SDS011;3400;48.506;11.692;2023-02-22T13:01:48;3.53;;;3.33;;
6725;SDS011;3400;48.506;11.692;2023-02-22T13:04:16;3.50;;;2.78;;
6725;SDS011;3400;48.506;11.692;2023-02-22T13:06:48;4.13;;;3.10;;
6725;SDS011;3400;48.506;11.692;2023-02-22T13:12:05;5.43;;;3.30;;
6725;SDS011;3400;48.506;11.692;2023-02-22T13:14:38;2.25;;;2.15;;
6725;SDS011;3400;48.506;11.692;2023-02-22T13:17:08;3.50;;;3.20;;
6725;SDS011;3400;48.506;11.692;2023-02-22T13:19:47;3.08;;;2.65;;
6725;SDS011;3400;48.506;11.692;2023-02-22T13:22:18;3.28;;;2.97;;
6725;SDS011;3400;48.506;11.692;2023-02-22T13:24:51;3.45;;;2.97;;
6725;SDS011;3400;48.506;11.692;2023-02-22T13:27:26;2.28;;;2.17;;
6725;SDS011;3400;48.506;11.692;2023-02-22T13:29:55;3.88;;;2.70;;
6725;SDS011;3400;48.506;11.692;2023-02-22T13:32:30;1.85;;;1.75;;
6725;SDS011;3400;48.506;11.692;2023-02-22T13:35:13;2.85;;;2.10;;
6725;SDS011;3400;48.506;11.692;2023-02-22T13:37:50;3.38;;;2.70;;
6725;SDS011;3400;48.506;11.692;2023-02-22T13:43:35;2.60;;;2.38;;
6725;SDS011;3400;48.506;11.692;2023-02-22T13:46:20;1.75;;;1.65;;
6725;SDS011;3400;48.506;11.692;2023-02-22T13:49:01;1.52;;;1.42;;
6725;SDS011;3400;48.506;11.692;2023-02-22T13:51:45;1.83;;;1.73;;
6725;SDS011;3400;48.506;11.692;2023-02-22T13:54:16;1.80;;;1.70;;
6725;SDS011;3400;48.506;11.692;2023-02-22T13:56:45;1.77;;;1.67;;
6725;SDS011;3400;48.506;11.692;2023-02-22T13:59:25;2.00;;;1.67;;
6725;SDS011;3400;48.506;11.692;2023-02-22T14:01:54;1.70;;;1.45;;
6725;SDS011;3400;48.506;11.692;2023-02-22T14:04:32;1.67;;;1.58;;
6725;SDS011;3400;48.506;11.692;2023-02-22T14:07:02;2.58;;;2.08;;
6725;SDS011;3400;48.506;11.692;2023-02-22T14:09:41;2.90;;;2.30;;
6725;SDS011;3400;48.506;11.692;2023-02-22T14:15:14;2.23;;;2.03;;
6725;SDS011;3400;48.506;11.692;2023-02-22T14:17:42;3.43;;;2.10;;
6725;SDS011;3400;48.506;11.692;2023-02-22T14:20:26;1.60;;;1.50;;
6725;SDS011;3400;48.506;11.692;2023-02-22T14:25:42;2.97;;;2.73;;
6725;SDS011;3400;48.506;11.692;2023-02-22T14:31:02;2.23;;;2.03;;
6725;SDS011;3400;48.506;11.692;2023-02-22T14:33:50;1.80;;;1.70;;
6725;SDS011;3400;48.506;11.692;2023-02-22T14:36:18;2.33;;;2.00;;
6725;SDS011;3400;48.506;11.692;2023-02-22T14:38:47;1.80;;;1.70;;
6725;SDS011;3400;48.506;11.692;2023-02-22T14:41:17;2.10;;;1.90;;
6725;SDS011;3400;48.506;11.692;2023-02-22T14:43:45;2.70;;;2.50;;
6725;SDS011;3400;48.506;11.692;2023-02-22T14:46:16;2.43;;;2.13;;
6725;SDS011;3400;48.506;11.692;2023-02-22T14:48:45;3.57;;;2.40;;
6725;SDS011;3400;48.506;11.692;2023-02-22T14:51:15;2.43;;;2.00;;
6725;SDS011;3400;48.506;11.692;2023-02-22T14:53:44;2.73;;;2.53;;
6725;SDS011;3400;48.506;11.692;2023-02-22T14:56:14;2.30;;;2.07;;
6725;SDS011;3400;48.506;11.692;2023-02-22T14:58:47;3.33;;;2.80;;
6725;SDS011;3400;48.506;11.692;2023-02-22T15:01:22;3.53;;;2.57;;
6725;SDS011;3400;48.506;11.692;2023-02-22T15:03:50;2.80;;;2.60;;
6725;SDS011;3400;48.506;11.692;2023-02-22T15:06:24;2.30;;;2.20;;
6725;SDS011;3400;48.506;11.692;2023-02-22T15:09:06;3.00;;;2.80;;
6725;SDS011;3400;48.506;11.692;2023-02-22T15:11:34;2.87;;;2.63;;
6725;SDS011;3400;48.506;11.692;2023-02-22T15:14:11;2.57;;;2.37;;
6725;SDS011;3400;48.506;11.692;2023-02-22T15:16:44;2.90;;;2.50;;
6725;SDS011;3400;48.506;11.692;2023-02-22T15:19:13;3.17;;;2.87;;
6725;SDS011;3400;48.506;11.692;2023-02-22T15:21:50;3.60;;;2.40;;
6725;SDS011;3400;48.506;11.692;2023-02-22T15:24:19;3.00;;;2.80;;
6725;SDS011;3400;48.506;11.692;2023-02-22T15:26:48;4.00;;;3.03;;
6725;SDS011;3400;48.506;11.692;2023-02-22T15:29:18;2.70;;;2.50;;
6725;SDS011;3400;48.506;11.692;2023-02-22T15:31:48;3.47;;;3.17;;
6725;SDS011;3400;48.506;11.692;2023-02-22T15:34:17;4.10;;;2.87;;
6725;SDS011;3400;48.506;11.692;2023-02-22T15:36:49;3.70;;;2.80;;
6725;SDS011;3400;48.506;11.692;2023-02-22T15:39:20;2.60;;;2.37;;
6725;SDS011;3400;48.506;11.692;2023-02-22T15:41:59;2.70;;;2.50;;
6725;SDS011;3400;48.506;11.692;2023-02-22T15:44:28;3.53;;;2.80;;
6725;SDS011;3400;48.506;11.692;2023-02-22T15:46:57;2.73;;;2.53;;
6725;SDS011;3400;48.506;11.692;2023-02-22T15:49:25;2.63;;;2.43;;